Time;durP1;ratioP1;P1;durP2;ratioP2;P2;SDS_P1;SDS_P2;PMS_P1;PMS_P2;Temp;Humidity;BMP_temperature;BMP_pressure;BME280_temperature;BME280_humidity;BME280_pressure;Samples;Min_cycle;Max_cycle;Signal;HPM_P1;HPM_P2
2022/09/21 00:04:09;;;;;;;7.07;3.55;;;;;;;7.14;80.02;100698.19;30623120;28;113548;-70
2022/09/21 00:19:10;;;;;;;7.82;3.35;;;;;;;6.98;80.18;100698.69;30622399;28;96674;-72
2022/09/21 00:34:11;;;;;;;6.07;3.80;;;;;;;6.91;81.04;100711.63;30620372;28;96700;-71
2022/09/21 00:49:12;;;;;;;7.93;3.55;;;;;;;6.87;81.35;100713.69;30619595;28;112157;-65
2022/09/21 01:04:15;;;;;;;6.38;4.03;;;;;;;6.84;81.85;100739.59;30618756;28;96909;-67
2022/09/21 01:19:30;;;;;;;6.47;3.90;;;;;;;6.82;82.20;100729.16;30616760;28;97191;-67
2022/09/21 01:34:49;;;;;;;5.37;3.70;;;;;;;6.77;81.86;100740.13;30615344;28;97230;-67
2022/09/21 01:49:54;;;;;;;11.10;4.00;;;;;;;6.75;82.05;100744.72;30611731;28;96726;-70
2022/09/21 02:04:55;;;;;;;5.37;3.77;;;;;;;6.69;81.93;100750.53;30612912;28;96634;-67
2022/09/21 02:20:26;;;;;;;5.50;3.50;;;;;;;6.66;82.76;100755.28;30611960;28;96801;-69
2022/09/21 02:35:29;;;;;;;5.82;3.47;;;;;;;6.83;83.59;100767.06;30609495;28;96978;-66
2022/09/21 02:50:43;;;;;;;4.93;3.67;;;;;;;6.93;83.34;100776.72;30608541;28;96764;-69
2022/09/21 03:05:49;;;;;;;8.10;4.17;;;;;;;7.35;83.59;100793.50;30620584;28;96591;-72
2022/09/21 03:20:49;;;;;;;7.80;5.20;;;;;;;7.61;83.14;100797.34;30625824;28;96707;-69
2022/09/21 03:35:51;;;;;;;9.00;5.38;;;;;;;7.72;83.15;100791.09;30625096;28;97536;-71
2022/09/21 03:50:51;;;;;;;10.10;5.17;;;;;;;7.79;82.68;100808.13;30624790;28;97047;-69
2022/09/21 04:05:53;;;;;;;8.93;5.37;;;;;;;7.79;82.95;100813.44;30619813;28;97201;-72
2022/09/21 04:20:53;;;;;;;10.52;6.35;;;;;;;7.85;83.05;100813.88;30615895;28;96673;-71
2022/09/21 04:35:54;;;;;;;10.65;6.15;;;;;;;7.92;83.12;100822.94;30615119;28;100932;-66
2022/09/21 04:50:55;;;;;;;9.57;6.37;;;;;;;8.00;82.64;100831.06;30617197;28;97503;-63
2022/09/21 05:05:56;;;;;;;10.77;6.20;;;;;;;8.13;82.52;100833.44;30615128;28;96657;-66
2022/09/21 05:20:58;;;;;;;12.13;6.40;;;;;;;8.27;82.51;100867.53;30614188;28;97039;-69
2022/09/21 05:36:26;;;;;;;9.53;6.30;;;;;;;8.38;82.54;100871.00;30611128;28;98790;-71
2022/09/21 05:51:39;;;;;;;9.50;5.20;;;;;;;8.54;82.67;100875.81;30610247;28;96887;-69
2022/09/21 06:06:39;;;;;;;10.67;6.20;;;;;;;8.80;82.38;100890.22;30610348;28;96688;-66
2022/09/21 06:21:40;;;;;;;12.38;6.60;;;;;;;9.05;81.99;100895.03;30608797;28;96821;-62
2022/09/21 06:36:40;;;;;;;10.45;6.80;;;;;;;9.37;81.79;100900.00;30615743;28;97380;-71
2022/09/21 06:51:41;;;;;;;9.20;6.00;;;;;;;9.42;81.39;100886.28;30628242;28;98503;-64
2022/09/21 07:06:42;;;;;;;10.43;4.90;;;;;;;9.29;81.03;100903.41;30626119;28;96652;-69
2022/09/21 07:21:42;;;;;;;8.57;4.68;;;;;;;11.13;82.54;100925.50;30624098;28;97414;-64
2022/09/21 07:36:43;;;;;;;8.57;5.60;;;;;;;11.97;79.25;100938.34;30619880;28;97023;-61
2022/09/21 07:51:43;;;;;;;8.05;5.40;;;;;;;13.10;78.20;100945.88;30618518;28;110628;-64
2022/09/21 08:06:43;;;;;;;7.18;4.97;;;;;;;13.15;75.94;100958.72;30620633;28;97412;-64
2022/09/21 08:21:44;;;;;;;8.52;5.38;;;;;;;13.08;75.64;100958.59;30618633;28;97381;-64
2022/09/21 08:36:45;;;;;;;9.17;6.17;;;;;;;12.90;75.28;100961.41;30615709;28;96749;-66
2022/09/21 08:51:52;;;;;;;9.40;6.43;;;;;;;13.37;74.98;100967.94;30613842;28;96903;-63
2022/09/21 09:07:18;;;;;;;7.17;6.03;;;;;;;13.71;73.71;100974.91;30613569;28;97351;-69
2022/09/21 09:22:24;;;;;;;7.23;5.43;;;;;;;16.12;72.94;100971.09;30614969;28;96617;-66
2022/09/21 09:37:32;;;;;;;4.87;2.73;;;;;;;25.13;58.85;100963.38;30613481;28;96942;-69
2022/09/21 09:52:33;;;;;;;3.83;2.83;;;;;;;25.29;52.51;100967.19;30611578;28;96914;-66
2022/09/21 10:07:39;;;;;;;4.93;2.87;;;;;;;27.62;46.49;100968.53;30609526;28;97150;-65
2022/09/21 10:22:45;;;;;;;2.70;1.70;;;;;;;36.40;29.39;100960.50;30607525;28;96864;-63
2022/09/21 10:37:53;;;;;;;4.20;1.70;;;;;;;33.57;26.98;100943.69;30607494;28;97055;-64
2022/09/21 10:53:01;;;;;;;7.90;2.20;;;;;;;31.91;28.84;100938.41;30605705;28;96846;-67
2022/09/21 11:08:22;;;;;;;5.23;1.50;;;;;;;33.50;26.00;100931.41;30606188;28;97689;-67
2022/09/21 11:23:28;;;;;;;3.67;1.33;;;;;;;43.48;17.30;100921.22;30611543;28;97739;-68
2022/09/21 11:38:44;;;;;;;2.13;1.20;;;;;;;38.17;19.37;100901.06;30623313;28;97536;-65
2022/09/21 11:54:02;;;;;;;6.93;1.23;;;;;;;41.04;15.99;100885.22;30621711;28;96633;-67
2022/09/21 12:09:14;;;;;;;2.50;1.20;;;;;;;28.66;26.47;100880.06;30619489;28;96832;-66
2022/09/21 12:24:20;;;;;;;1.93;1.10;;;;;;;28.51;26.80;100874.56;30617408;28;96980;-63
2022/09/21 12:39:58;;;;;;;2.63;1.17;;;;;;;24.67;30.82;100865.41;30615695;28;97398;-65
2022/09/21 12:55:24;;;;;;;2.33;1.10;;;;;;;23.45;32.85;100856.56;30612703;28;97551;-62
2022/09/21 13:10:27;;;;;;;5.73;1.20;;;;;;;21.16;35.86;100850.13;30613680;28;97992;-64
2022/09/21 13:25:31;;;;;;;3.37;1.17;;;;;;;19.72;38.44;100848.00;30611990;28;96711;-65
2022/09/21 13:40:34;;;;;;;2.67;1.13;;;;;;;18.56;40.59;100851.13;30612543;28;97229;-71
2022/09/21 13:55:47;;;;;;;2.47;1.37;;;;;;;19.28;41.98;100832.34;30610261;28;97690;-66
2022/09/21 14:10:53;;;;;;;3.50;1.00;;;;;;;17.82;42.71;100839.31;30610801;28;97318;-72
2022/09/21 14:25:55;;;;;;;2.67;1.20;;;;;;;18.63;44.09;100828.69;30609107;28;96777;-64
2022/09/21 14:41:00;;;;;;;3.10;1.20;;;;;;;19.31;42.42;100824.88;30608416;28;97309;-70
2022/09/21 14:56:09;;;;;;;4.70;1.03;;;;;;;18.41;43.49;100821.66;30612435;28;96801;-72
2022/09/21 15:11:24;;;;;;;2.20;1.50;;;;;;;18.33;43.43;100815.59;30627954;28;97629;-65
2022/09/21 15:26:32;;;;;;;2.60;1.33;;;;;;;17.39;45.52;100810.75;30625057;28;96739;-66
2022/09/21 15:41:43;;;;;;;2.40;1.37;;;;;;;16.04;47.94;100804.56;30622980;28;97247;-62
2022/09/21 15:56:44;;;;;;;3.83;2.03;;;;;;;14.96;51.37;100812.31;30621506;28;96857;-68
2022/09/21 16:11:44;;;;;;;2.28;1.55;;;;;;;14.21;53.13;100823.66;30618791;28;96738;-66
2022/09/21 16:27:00;;;;;;;2.03;1.10;;;;;;;13.61;55.19;100824.34;30617604;28;97156;-72
2022/09/21 16:42:02;;;;;;;2.33;1.07;;;;;;;12.89;55.92;100833.22;30615633;28;96803;-73
2022/09/21 16:57:05;;;;;;;3.00;1.03;;;;;;;12.46;56.91;100866.31;30614158;28;96795;-72
2022/09/21 17:12:08;;;;;;;4.00;1.23;;;;;;;12.58;58.36;100866.00;30615195;28;97376;-70
2022/09/21 17:27:08;;;;;;;2.97;1.63;;;;;;;12.60;58.20;100890.72;30613906;28;98656;-68
2022/09/21 17:42:17;;;;;;;2.53;1.40;;;;;;;12.36;59.10;100889.69;30610028;28;96825;-64
2022/09/21 17:57:28;;;;;;;5.00;2.23;;;;;;;12.05;60.76;100902.81;30611162;28;97008;-65
2022/09/21 18:13:06;;;;;;;8.77;3.33;;;;;;;11.97;62.42;100911.63;30607760;28;97535;-63
2022/09/21 18:28:38;;;;;;;4.97;2.70;;;;;;;11.84;62.96;100910.22;30609511;28;97336;-64
2022/09/21 18:43:48;;;;;;;5.63;2.37;;;;;;;11.76;63.08;100920.88;30629369;28;96672;-66
2022/09/21 18:58:49;;;;;;;6.50;2.60;;;;;;;11.68;64.32;100920.84;30628406;28;96689;-70
2022/09/21 19:14:03;;;;;;;5.07;2.75;;;;;;;11.58;64.84;100923.63;30628754;28;96724;-68
2022/09/21 19:29:26;;;;;;;4.63;2.63;;;;;;;11.57;66.15;100923.78;30625173;28;96974;-67
2022/09/21 19:44:46;;;;;;;;;;;;;;;11.37;66.43;100907.97;30624067;28;97361;-64
2022/09/21 19:59:48;;;;;;;4.93;2.80;;;;;;;11.27;67.69;100900.09;30623389;28;96820;-68
2022/09/21 20:15:09;;;;;;;5.60;3.20;;;;;;;11.14;68.64;100903.19;30620267;28;96673;-66
2022/09/21 20:30:12;;;;;;;5.43;2.77;;;;;;;11.08;69.85;100905.66;30621535;28;96815;-64
2022/09/21 20:45:15;;;;;;;4.77;2.40;;;;;;;11.07;69.81;100904.81;30619075;28;97417;-63
2022/09/21 21:00:16;;;;;;;;;;;;;;;11.06;69.45;100908.47;30616522;28;99179;-64
2022/09/21 21:15:17;;;;;;;5.05;2.17;;;;;;;11.09;70.38;100905.47;30618199;28;97705;-63
2022/09/21 21:30:17;;;;;;;3.87;1.80;;;;;;;11.05;70.11;100890.78;30615985;28;96819;-65
2022/09/21 21:45:20;;;;;;;5.13;2.10;;;;;;;10.94;70.03;100891.06;30614283;28;105909;-63
2022/09/21 22:00:20;;;;;;;4.80;2.90;;;;;;;10.70;70.73;100881.03;30614022;28;97498;-68
2022/09/21 22:15:21;;;;;;;5.10;2.80;;;;;;;10.34;71.19;100887.19;30611693;28;96751;-68
2022/09/21 22:30:22;;;;;;;8.88;3.78;;;;;;;10.14;72.12;100874.00;30610908;28;103461;-65
2022/09/21 22:45:25;;;;;;;5.77;3.80;;;;;;;9.94;72.96;100880.44;30610931;28;97659;-62
2022/09/21 23:00:25;;;;;;;9.83;4.90;;;;;;;9.67;73.67;100879.47;30609715;28;96646;-62
2022/09/21 23:15:25;;;;;;;5.90;4.40;;;;;;;9.73;74.62;100881.53;30611126;28;115509;-63
2022/09/21 23:30:25;;;;;;;6.05;3.63;;;;;;;9.92;74.95;100879.75;30627996;28;108338;-63
2022/09/21 23:45:26;;;;;;;6.95;3.88;;;;;;;9.74;74.46;100863.75;30625694;28;113195;-63
